• Join FlightAware (Why Join?)
  • Login
  • US Flag 
08:01AM EST


 

Airport Tracker/Info


-or-


 

Live Flight TrackerFlight Track Log ✈ KAP82 ✈ 26-Aug-2013 ✈ KBOS - KMVY

Flight Track Log - Related Links

Times and Time Zones

All times are in EDT time to prevent confusion due to time zone crossing. See the KAP82 flight status page for this flight to view local times or setup timezone preferences in your user account.

Time Position Orientation Groundspeed Altitude Reporting Facility
EDT Latitude Longitude Course Direction KTS MPH feet Rate Location/Type
06:49AM 42.3667 -71.0167 164° South 124 143 500  Level KA90
06:50AM 42.3333 -71.0333 200° South 107 123 1,300 720 Climbing KA90
06:51AM 42.3167 -71.0500 216° Southwest 121 139 1,900 540 Climbing KA90
06:52AM 42.2833 -71.0833 216° Southwest 141 162 2,400 420 Climbing KA90
06:53AM 42.2333 -71.0500 154° Southeast 153 176 2,900 240 Climbing KA90
06:54AM 42.2000 -71.0167 143° Southeast 176 203 3,000  Climbing KA90
06:55AM 42.1869 -70.9342 164° South  Level Estimated
06:55AM 42.1667 -70.9833 143° Southeast 174 200 3,000  Level KA90
06:56AM 42.1333 -70.9333 132° Southeast 167 192 3,000  Level KA90
06:57AM 42.1000 -70.9000 143° Southeast 167 192 3,000  Level KA90
06:58AM 42.0667 -70.8667 143° Southeast 164 189 3,000  Level KA90
07:00AM 42.0195 -70.8509 166° South  Level FlightAware Approximate
07:07AM 41.8109 -70.7832 162° South  Level FlightAware Approximate
07:08AM 41.7817 -70.7707 162° South  Level FlightAware Approximate
07:09AM 41.7525 -70.7582 162° South  Level FlightAware Approximate
07:10AM 41.7233 -70.7456 162° South  Level FlightAware Approximate
07:11AM 41.6942 -70.7326 162° South  Level FlightAware Approximate
07:12AM 41.6651 -70.7197 162° South  Level FlightAware Approximate
07:13AM 41.6360 -70.7067 162° South  Level FlightAware Approximate
07:14AM 41.6069 -70.6938 162° South  Level FlightAware Approximate
07:15AM 41.5778 -70.6809 162° South  Level FlightAware Approximate
07:16AM 41.5486 -70.6684 162° South  Level FlightAware Approximate
07:17AM 41.5194 -70.6559 162° South  Level FlightAware Approximate
07:18AM 41.4902 -70.6434 162° South  Level FlightAware Approximate
07:19AM 41.4609 -70.6311 163° South  Level FlightAware Approximate
07:20AM 41.4316 -70.6193 163° South  Level FlightAware Approximate
07:21AM 41.4022 -70.6075 163° South  Level FlightAware Approximate
07:22AM 41.3934 -70.6139 163° South  Level Estimated